Time;durP1;ratioP1;P1;durP2;ratioP2;P2;SDS_P1;SDS_P2;PMS_P1;PMS_P2;Temp;Humidity;BMP_temperature;BMP_pressure;BME280_temperature;BME280_humidity;BME280_pressure;Samples;Min_cycle;Max_cycle;Signal;HPM_P1;HPM_P2
2023/12/12 00:02:04;;;;;;;7.20;2.20;;;;;;;;;;4917740;29;20477;-83
2023/12/12 00:04:29;;;;;;;12.85;2.65;;;;;;;;;;4918892;29;20626;-83
2023/12/12 00:06:54;;;;;;;7.97;2.37;;;;;;;;;;4913004;29;20029;-83
2023/12/12 00:09:20;;;;;;;11.77;2.30;;;;;;;;;;4929011;29;20275;-82
2023/12/12 00:11:45;;;;;;;9.90;2.30;;;;;;;;;;4907627;29;20271;-82
2023/12/12 00:14:10;;;;;;;11.13;2.73;;;;;;;;;;4913004;29;20445;-82
2023/12/12 00:16:35;;;;;;;8.87;2.37;;;;;;;;;;4909576;29;20760;-82
2023/12/12 00:19:01;;;;;;;6.43;1.73;;;;;;;;;;4909952;29;20342;-82
2023/12/12 00:21:26;;;;;;;7.93;1.95;;;;;;;;;;4916996;29;20326;-82
2023/12/12 00:23:51;;;;;;;12.67;2.50;;;;;;;;;;4907877;29;20107;-82
2023/12/12 00:26:16;;;;;;;14.67;2.93;;;;;;;;;;4925282;29;20369;-82
2023/12/12 00:28:42;;;;;;;17.33;3.17;;;;;;;;;;4924758;29;20732;-83
2023/12/12 00:31:07;;;;;;;16.90;2.90;;;;;;;;;;4908901;29;20357;-82
2023/12/12 00:33:32;;;;;;;8.90;2.20;;;;;;;;;;4919314;29;20739;-82
2023/12/12 00:35:59;;;;;;;18.00;2.83;;;;;;;;;;4906446;29;20103;-82
2023/12/12 00:38:28;;;;;;;16.05;2.65;;;;;;;;;;4921000;29;20283;-82
2023/12/12 00:40:54;;;;;;;11.00;2.17;;;;;;;;;;4911277;29;20366;-82
2023/12/12 00:43:19;;;;;;;10.05;2.63;;;;;;;;;;4905317;29;20032;-82
2023/12/12 00:45:45;;;;;;;8.80;2.08;;;;;;;;;;4924179;29;20027;-82
2023/12/12 00:48:10;;;;;;;14.27;2.70;;;;;;;;;;4908896;29;20032;-82
2023/12/12 00:50:35;;;;;;;8.63;2.30;;;;;;;;;;4912865;29;20619;-82
2023/12/12 00:53:00;;;;;;;14.55;2.42;;;;;;;;;;4910180;29;20032;-83
2023/12/12 00:55:25;;;;;;;11.87;2.60;;;;;;;;;;4901863;29;20024;-82
2023/12/12 00:57:51;;;;;;;12.20;2.60;;;;;;;;;;4914631;29;20278;-82
2023/12/12 01:00:17;;;;;;;9.60;2.65;;;;;;;;;;4916071;29;20290;-82
2023/12/12 01:02:42;;;;;;;11.55;2.20;;;;;;;;;;4915531;29;20032;-82
2023/12/12 01:05:07;;;;;;;8.43;1.90;;;;;;;;;;4931493;29;20465;-82
2023/12/12 01:07:32;;;;;;;13.23;2.40;;;;;;;;;;4910802;29;20028;-82
2023/12/12 01:09:58;;;;;;;10.17;2.90;;;;;;;;;;4899866;29;20040;-82
2023/12/12 01:12:25;;;;;;;12.07;2.90;;;;;;;;;;4923488;29;20289;-82
2023/12/12 01:14:50;;;;;;;11.27;3.30;;;;;;;;;;4908919;29;20274;-82
2023/12/12 01:17:15;;;;;;;6.83;2.30;;;;;;;;;;4901114;29;20698;-82
2023/12/12 01:19:40;;;;;;;11.43;2.00;;;;;;;;;;4907634;29;20274;-82
2023/12/12 01:22:06;;;;;;;13.70;2.40;;;;;;;;;;4906930;29;20279;-82
2023/12/12 01:24:31;;;;;;;8.13;1.97;;;;;;;;;;4901333;29;20027;-82
2023/12/12 01:26:56;;;;;;;12.10;2.38;;;;;;;;;;4917320;29;20266;-82
2023/12/12 01:29:21;;;;;;;9.80;2.42;;;;;;;;;;4928922;29;20588;-82
2023/12/12 01:31:46;;;;;;;8.63;2.57;;;;;;;;;;4914074;29;20106;-82
2023/12/12 01:34:12;;;;;;;12.13;2.03;;;;;;;;;;4916232;29;20358;-82
2023/12/12 01:36:37;;;;;;;8.57;2.43;;;;;;;;;;4906852;29;20031;-82
2023/12/12 01:39:03;;;;;;;16.50;2.43;;;;;;;;;;4922391;29;20287;-82
2023/12/12 01:41:28;;;;;;;11.52;2.40;;;;;;;;;;4909652;29;20342;-82
2023/12/12 01:43:53;;;;;;;13.10;1.97;;;;;;;;;;4912128;29;20114;-82
2023/12/12 01:46:19;;;;;;;6.57;1.97;;;;;;;;;;4899347;29;20359;-82
2023/12/12 01:48:44;;;;;;;7.93;2.00;;;;;;;;;;4897837;29;20711;-82
2023/12/12 01:51:10;;;;;;;8.68;2.10;;;;;;;;;;4927663;29;20031;-82
2023/12/12 01:53:55;;;;;;;9.75;2.10;;;;;;;;;;4902780;29;20063;-82
2023/12/12 01:56:21;;;;;;;12.85;2.47;;;;;;;;;;4899680;29;20485;-82
2023/12/12 01:58:48;;;;;;;7.22;1.90;;;;;;;;;;4914857;29;20032;-82
2023/12/12 02:01:14;;;;;;;8.52;1.85;;;;;;;;;;4904213;29;20374;-82
2023/12/12 02:03:40;;;;;;;4.40;1.55;;;;;;;;;;4898455;29;20056;-82
2023/12/12 02:06:06;;;;;;;6.35;2.13;;;;;;;;;;4898212;29;20052;-82
2023/12/12 02:08:31;;;;;;;10.40;2.05;;;;;;;;;;4898125;29;20063;-82
2023/12/12 02:10:56;;;;;;;9.55;2.28;;;;;;;;;;4912637;29;20478;-82
2023/12/12 02:13:21;;;;;;;4.80;1.65;;;;;;;;;;4925113;29;20140;-82
2023/12/12 02:15:47;;;;;;;7.35;1.67;;;;;;;;;;4901243;29;20039;-82
2023/12/12 02:18:14;;;;;;;3.47;1.33;;;;;;;;;;4914709;29;20449;-82
2023/12/12 02:20:39;;;;;;;5.28;1.20;;;;;;;;;;4912848;29;20392;-82
2023/12/12 02:23:04;;;;;;;5.78;1.70;;;;;;;;;;4902125;29;20024;-83
2023/12/12 02:25:30;;;;;;;7.32;1.88;;;;;;;;;;4916197;29;20028;-82
2023/12/12 02:27:55;;;;;;;9.90;2.17;;;;;;;;;;4913071;29;20474;-83
2023/12/12 02:30:20;;;;;;;6.15;2.00;;;;;;;;;;4909294;29;20345;-82
2023/12/12 02:32:46;;;;;;;9.60;2.13;;;;;;;;;;4923500;29;20110;-82
2023/12/12 02:35:11;;;;;;;5.47;1.53;;;;;;;;;;4908429;29;20051;-82
2023/12/12 02:37:36;;;;;;;4.33;1.13;;;;;;;;;;4916118;29;20381;-82
2023/12/12 02:40:02;;;;;;;9.27;1.83;;;;;;;;;;4898235;29;20354;-82
2023/12/12 02:42:27;;;;;;;7.07;1.80;;;;;;;;;;4911516;29;20027;-82
2023/12/12 02:44:52;;;;;;;7.17;1.70;;;;;;;;;;4898006;29;20083;-82
2023/12/12 02:47:17;;;;;;;6.50;1.57;;;;;;;;;;4909281;29;20308;-82
2023/12/12 02:49:43;;;;;;;10.67;1.60;;;;;;;;;;4908652;29;20275;-82
2023/12/12 02:52:08;;;;;;;6.57;1.80;;;;;;;;;;4908518;29;20270;-82
2023/12/12 02:54:33;;;;;;;13.50;4.10;;;;;;;;;;4903054;29;20124;-82
2023/12/12 02:56:58;;;;;;;22.53;6.03;;;;;;;;;;4918566;29;20507;-82
2023/12/12 02:59:23;;;;;;;27.97;9.00;;;;;;;;;;4933278;29;20274;-82
2023/12/12 03:01:49;;;;;;;36.40;11.13;;;;;;;;;;4911311;29;20263;-82
2023/12/12 03:04:14;;;;;;;23.23;6.90;;;;;;;;;;4920018;29;20276;-82
2023/12/12 03:06:39;;;;;;;21.45;6.93;;;;;;;;;;4930517;29;20270;-82
2023/12/12 03:09:04;;;;;;;13.67;4.77;;;;;;;;;;4912086;29;20133;-82
2023/12/12 03:11:30;;;;;;;14.18;3.35;;;;;;;;;;4918702;29;20392;-82
2023/12/12 03:13:55;;;;;;;8.27;2.57;;;;;;;;;;4923384;29;20029;-82
2023/12/12 03:16:20;;;;;;;7.33;2.53;;;;;;;;;;4905222;29;20281;-82
2023/12/12 03:18:45;;;;;;;4.67;1.67;;;;;;;;;;4909601;29;20282;-82
2023/12/12 03:21:10;;;;;;;4.27;1.87;;;;;;;;;;4922642;29;20267;-82
2023/12/12 03:23:36;;;;;;;9.50;2.37;;;;;;;;;;4912242;29;20277;-82
2023/12/12 03:26:08;;;;;;;6.55;2.15;;;;;;;;;;4917420;29;20338;-82
2023/12/12 03:28:36;;;;;;;5.32;2.20;;;;;;;;;;4910844;29;20050;-82
2023/12/12 03:31:03;;;;;;;7.25;1.90;;;;;;;;;;4927803;29;20039;-82
2023/12/12 03:33:28;;;;;;;4.88;1.48;;;;;;;;;;4915288;29;20036;-82
2023/12/12 03:35:53;;;;;;;6.07;1.60;;;;;;;;;;4906568;29;20225;-82
2023/12/12 03:38:19;;;;;;;9.93;1.87;;;;;;;;;;4907821;29;20283;-82
2023/12/12 03:40:44;;;;;;;3.10;1.30;;;;;;;;;;4915163;29;20263;-82
2023/12/12 03:43:09;;;;;;;15.50;2.90;;;;;;;;;;4907894;29;20294;-82
2023/12/12 03:45:34;;;;;;;10.13;2.80;;;;;;;;;;4913781;29;20322;-82
2023/12/12 03:47:59;;;;;;;19.23;3.47;;;;;;;;;;4902351;29;20267;-82
2023/12/12 03:50:25;;;;;;;12.37;3.27;;;;;;;;;;4914254;29;20278;-82
2023/12/12 03:52:50;;;;;;;6.07;3.00;;;;;;;;;;4927688;29;20763;-82
2023/12/12 03:55:15;;;;;;;24.98;10.73;;;;;;;;;;4916650;29;20410;-82
2023/12/12 03:57:40;;;;;;;29.48;9.50;;;;;;;;;;4916982;29;20028;-82
2023/12/12 04:00:07;;;;;;;18.43;7.67;;;;;;;;;;4908534;29;20525;-82
2023/12/12 04:02:32;;;;;;;19.67;8.20;;;;;;;;;;4918472;29;20266;-82
2023/12/12 04:04:57;;;;;;;17.02;7.30;;;;;;;;;;4931801;29;20038;-82
2023/12/12 04:07:22;;;;;;;13.70;5.93;;;;;;;;;;4913261;29;20064;-82
2023/12/12 04:09:48;;;;;;;13.57;6.70;;;;;;;;;;4932496;29;20310;-82
2023/12/12 04:12:13;;;;;;;16.90;6.23;;;;;;;;;;4924211;29;20056;-82
2023/12/12 04:14:38;;;;;;;19.37;7.90;;;;;;;;;;4932359;29;20390;-82
2023/12/12 04:17:03;;;;;;;15.07;6.13;;;;;;;;;;4924453;29;20271;-82
2023/12/12 04:19:28;;;;;;;28.13;10.13;;;;;;;;;;4917383;29;20294;-82
2023/12/12 04:21:54;;;;;;;29.23;10.82;;;;;;;;;;4915048;29;20028;-82
2023/12/12 04:24:19;;;;;;;21.08;8.35;;;;;;;;;;4916760;29;20035;-82
2023/12/12 04:26:44;;;;;;;21.23;7.63;;;;;;;;;;4908242;29;20374;-82
2023/12/12 04:29:10;;;;;;;19.07;7.50;;;;;;;;;;4916138;29;20060;-82
2023/12/12 04:31:36;;;;;;;20.17;8.30;;;;;;;;;;4901397;29;20282;-82
2023/12/12 04:34:01;;;;;;;21.50;8.02;;;;;;;;;;4917393;29;20329;-82
2023/12/12 04:36:26;;;;;;;15.38;7.30;;;;;;;;;;4931895;29;20484;-82
2023/12/12 04:38:51;;;;;;;17.20;5.47;;;;;;;;;;4916710;29;20051;-82
2023/12/12 04:41:17;;;;;;;14.43;5.37;;;;;;;;;;4931161;29;20276;-82
2023/12/12 04:43:42;;;;;;;8.50;4.43;;;;;;;;;;4924121;29;20271;-82
2023/12/12 04:46:07;;;;;;;9.15;3.63;;;;;;;;;;4917047;29;20263;-82
2023/12/12 04:48:33;;;;;;;11.03;4.13;;;;;;;;;;4908330;29;20180;-82
2023/12/12 04:51:00;;;;;;;14.00;4.13;;;;;;;;;;4915510;29;20357;-82
2023/12/12 04:53:25;;;;;;;11.80;4.72;;;;;;;;;;4916064;29;20036;-82
2023/12/12 04:55:50;;;;;;;16.17;6.87;;;;;;;;;;4912259;29;20371;-82
2023/12/12 04:58:15;;;;;;;16.07;6.77;;;;;;;;;;4906343;29;20795;-82
2023/12/12 05:00:40;;;;;;;15.43;8.17;;;;;;;;;;4906286;29;20266;-82
2023/12/12 05:03:06;;;;;;;18.33;6.83;;;;;;;;;;4926145;29;20263;-82
2023/12/12 05:05:31;;;;;;;20.95;6.43;;;;;;;;;;4913686;29;20071;-82
2023/12/12 05:07:56;;;;;;;11.73;5.43;;;;;;;;;;4915918;29;20028;-82
2023/12/12 05:10:21;;;;;;;27.20;9.33;;;;;;;;;;4928248;29;20267;-85
2023/12/12 05:12:46;;;;;;;20.40;9.40;;;;;;;;;;4913037;29;20367;-83
2023/12/12 05:15:12;;;;;;;21.97;8.70;;;;;;;;;;4898640;29;20425;-83
2023/12/12 05:17:38;;;;;;;19.88;6.85;;;;;;;;;;4898632;29;20044;-83
2023/12/12 05:20:03;;;;;;;11.93;5.10;;;;;;;;;;4896982;29;20023;-83
2023/12/12 05:22:29;;;;;;;17.58;4.95;;;;;;;;;;4897203;29;20477;-83
2023/12/12 05:24:54;;;;;;;10.23;4.43;;;;;;;;;;4898502;29;20056;-83
2023/12/12 05:27:20;;;;;;;14.13;6.22;;;;;;;;;;4897116;29;20059;-83
2023/12/12 05:29:45;;;;;;;12.43;4.45;;;;;;;;;;4897156;29;20028;-83
2023/12/12 05:32:10;;;;;;;14.00;5.27;;;;;;;;;;4897221;29;20469;-83
2023/12/12 05:34:36;;;;;;;10.57;4.47;;;;;;;;;;4898496;29;20257;-83
2023/12/12 05:37:01;;;;;;;18.90;5.43;;;;;;;;;;4898344;29;20258;-83
2023/12/12 05:39:27;;;;;;;14.77;6.60;;;;;;;;;;4897069;29;20286;-83
2023/12/12 05:41:52;;;;;;;12.90;6.45;;;;;;;;;;4897176;29;20016;-83
2023/12/12 05:44:17;;;;;;;17.80;6.23;;;;;;;;;;4897056;29;20120;-83
2023/12/12 05:46:42;;;;;;;12.07;6.13;;;;;;;;;;4898162;29;20260;-83
2023/12/12 05:49:09;;;;;;;14.67;7.13;;;;;;;;;;4912714;29;20263;-83
2023/12/12 05:51:36;;;;;;;14.82;5.30;;;;;;;;;;4896967;29;20264;-83
2023/12/12 05:54:02;;;;;;;12.82;4.75;;;;;;;;;;4898313;29;20031;-83
2023/12/12 05:56:27;;;;;;;7.80;3.40;;;;;;;;;;4897022;29;20100;-83
2023/12/12 05:58:52;;;;;;;10.73;4.83;;;;;;;;;;4898153;29;20032;-83
2023/12/12 06:01:18;;;;;;;15.40;5.50;;;;;;;;;;4896998;29;20267;-83
2023/12/12 06:03:43;;;;;;;20.50;8.02;;;;;;;;;;4898229;29;20400;-83
2023/12/12 06:06:09;;;;;;;16.30;8.05;;;;;;;;;;4898137;29;20056;-83
2023/12/12 06:08:35;;;;;;;19.17;8.88;;;;;;;;;;4881463;29;20113;-83
2023/12/12 06:11:00;;;;;;;19.27;7.93;;;;;;;;;;4896862;29;20020;-83
2023/12/12 06:13:26;;;;;;;15.00;7.50;;;;;;;;;;4912605;29;20033;-83
2023/12/12 06:15:51;;;;;;;15.68;6.65;;;;;;;;;;4896824;29;20274;-83
2023/12/12 06:18:17;;;;;;;13.33;6.20;;;;;;;;;;4898531;29;20029;-83
2023/12/12 06:20:43;;;;;;;16.25;7.20;;;;;;;;;;4901819;29;20248;-83
2023/12/12 06:23:08;;;;;;;11.02;5.78;;;;;;;;;;4901844;29;20024;-83
2023/12/12 06:25:33;;;;;;;16.67;6.10;;;;;;;;;;4902013;29;20020;-83
2023/12/12 06:27:59;;;;;;;11.32;5.13;;;;;;;;;;4900354;29;20049;-83
2023/12/12 06:30:24;;;;;;;9.60;4.93;;;;;;;;;;4916239;29;20028;-83
2023/12/12 06:32:49;;;;;;;9.23;4.23;;;;;;;;;;4901837;29;20083;-83
2023/12/12 06:35:14;;;;;;;13.63;4.77;;;;;;;;;;4900390;29;20263;-83
2023/12/12 06:37:40;;;;;;;7.90;4.07;;;;;;;;;;4901529;29;20835;-83
2023/12/12 06:40:05;;;;;;;7.77;4.03;;;;;;;;;;4901558;29;20028;-83
2023/12/12 06:42:30;;;;;;;9.85;4.28;;;;;;;;;;4901466;29;20255;-83
2023/12/12 06:44:56;;;;;;;10.57;4.93;;;;;;;;;;4900261;29;20389;-83
2023/12/12 06:47:22;;;;;;;12.43;3.60;;;;;;;;;;4900171;29;20077;-83
2023/12/12 06:49:47;;;;;;;6.63;3.10;;;;;;;;;;4901441;29;20327;-83
2023/12/12 06:52:12;;;;;;;3.97;2.70;;;;;;;;;;4901469;29;20023;-83
2023/12/12 06:54:37;;;;;;;6.07;3.13;;;;;;;;;;4901505;29;20025;-83
2023/12/12 06:57:03;;;;;;;4.22;2.63;;;;;;;;;;4900036;29;20477;-83
2023/12/12 06:59:29;;;;;;;3.97;1.85;;;;;;;;;;4899985;29;20121;-83
2023/12/12 07:01:54;;;;;;;10.05;4.43;;;;;;;;;;4899970;29;20017;-83
2023/12/12 07:04:19;;;;;;;7.80;3.78;;;;;;;;;;4901105;29;20024;-83
2023/12/12 07:06:45;;;;;;;11.60;5.47;;;;;;;;;;4899868;29;20043;-83
2023/12/12 07:09:12;;;;;;;8.63;4.70;;;;;;;;;;4899834;29;20491;-83
2023/12/12 07:11:37;;;;;;;7.35;3.80;;;;;;;;;;4901088;29;20093;-83
2023/12/12 07:14:03;;;;;;;9.55;4.70;;;;;;;;;;4900890;29;20485;-83
2023/12/12 07:16:28;;;;;;;11.00;5.60;;;;;;;;;;4900986;29;20029;-83
2023/12/12 07:18:54;;;;;;;7.28;4.18;;;;;;;;;;4900861;29;20079;-84
2023/12/12 07:21:19;;;;;;;7.05;4.43;;;;;;;;;;4917008;29;20100;-83
2023/12/12 07:23:47;;;;;;;11.43;5.25;;;;;;;;;;4934227;29;20063;-83
2023/12/12 07:26:15;;;;;;;9.25;4.18;;;;;;;;;;4918436;29;20020;-83
2023/12/12 07:28:40;;;;;;;8.27;4.00;;;;;;;;;;4933975;29;20064;-83
2023/12/12 07:31:05;;;;;;;6.83;3.60;;;;;;;;;;4933920;29;20027;-83
2023/12/12 07:33:30;;;;;;;5.00;3.00;;;;;;;;;;4919498;29;20027;-83
2023/12/12 07:35:57;;;;;;;3.83;2.63;;;;;;;;;;4934071;29;20265;-83
2023/12/12 07:38:22;;;;;;;3.92;1.77;;;;;;;;;;4918117;29;20286;-83
2023/12/12 07:40:47;;;;;;;7.57;2.97;;;;;;;;;;4934135;29;20043;-83
2023/12/12 07:43:12;;;;;;;7.03;2.60;;;;;;;;;;4919405;29;20473;-83
2023/12/12 07:45:38;;;;;;;4.88;2.85;;;;;;;;;;4919371;29;20247;-84
2023/12/12 07:48:03;;;;;;;8.27;3.13;;;;;;;;;;4919250;29;20020;-83
2023/12/12 07:50:29;;;;;;;3.33;2.08;;;;;;;;;;4917959;29;20038;-83
2023/12/12 07:52:54;;;;;;;6.15;2.47;;;;;;;;;;4919188;29;20035;-83
2023/12/12 07:55:19;;;;;;;8.23;2.23;;;;;;;;;;4917887;29;20063;-83
2023/12/12 07:57:45;;;;;;;4.38;1.30;;;;;;;;;;4919071;29;20321;-83
2023/12/12 08:00:10;;;;;;;3.45;1.75;;;;;;;;;;4917820;29;20020;-83
2023/12/12 08:02:36;;;;;;;3.47;1.52;;;;;;;;;;4919076;29;20078;-83
2023/12/12 08:05:01;;;;;;;3.80;1.63;;;;;;;;;;4933511;29;20385;-84
2023/12/12 08:07:26;;;;;;;2.53;1.27;;;;;;;;;;4933481;29;20016;-83
2023/12/12 08:09:52;;;;;;;2.50;1.50;;;;;;;;;;4918918;29;20151;-83
2023/12/12 08:12:17;;;;;;;3.03;1.50;;;;;;;;;;4933416;29;20322;-83
2023/12/12 08:14:42;;;;;;;3.15;1.52;;;;;;;;;;4918784;29;20254;-83
2023/12/12 08:17:07;;;;;;;3.22;1.52;;;;;;;;;;4918757;29;20047;-83
2023/12/12 08:19:33;;;;;;;4.25;1.70;;;;;;;;;;4917360;29;20026;-84
2023/12/12 08:21:58;;;;;;;5.33;1.97;;;;;;;;;;4933204;29;20016;-83
2023/12/12 08:24:24;;;;;;;5.38;1.90;;;;;;;;;;4917379;29;20016;-83
2023/12/12 08:26:49;;;;;;;6.32;2.22;;;;;;;;;;4917300;29;20103;-83
2023/12/12 08:29:14;;;;;;;3.63;1.97;;;;;;;;;;4918392;29;20428;-83
2023/12/12 08:31:40;;;;;;;4.90;2.10;;;;;;;;;;4933028;29;20291;-83
2023/12/12 08:34:05;;;;;;;3.40;1.75;;;;;;;;;;4933014;29;20262;-83
2023/12/12 08:36:31;;;;;;;7.00;2.30;;;;;;;;;;4932928;29;20028;-83
2023/12/12 08:38:58;;;;;;;5.28;2.25;;;;;;;;;;4917044;29;20056;-83
2023/12/12 08:41:23;;;;;;;2.55;1.77;;;;;;;;;;4916418;29;20382;-83
2023/12/12 08:43:49;;;;;;;4.57;1.98;;;;;;;;;;4932873;29;20055;-83
2023/12/12 08:46:14;;;;;;;2.63;1.67;;;;;;;;;;4918232;29;20469;-84
2023/12/12 08:48:39;;;;;;;4.27;1.90;;;;;;;;;;4918436;29;20476;-83
2023/12/12 08:51:05;;;;;;;5.53;2.00;;;;;;;;;;4916887;29;20611;-83
2023/12/12 08:53:30;;;;;;;3.78;1.70;;;;;;;;;;4916784;29;20627;-83
2023/12/12 08:55:55;;;;;;;2.77;1.73;;;;;;;;;;4918009;29;20027;-83
2023/12/12 08:58:25;;;;;;;3.97;2.20;;;;;;;;;;4917867;29;20330;-83
2023/12/12 09:00:54;;;;;;;3.55;1.77;;;;;;;;;;4916721;29;20309;-83
2023/12/12 09:03:19;;;;;;;2.90;1.45;;;;;;;;;;4917924;29;20115;-83
2023/12/12 09:05:44;;;;;;;3.67;1.63;;;;;;;;;;4917906;29;20485;-83
2023/12/12 09:08:10;;;;;;;6.03;2.53;;;;;;;;;;4932469;29;20059;-83
2023/12/12 09:10:36;;;;;;;4.82;1.73;;;;;;;;;;4932347;29;20056;-84
2023/12/12 09:13:01;;;;;;;2.17;1.40;;;;;;;;;;4917732;29;20024;-83
2023/12/12 09:15:26;;;;;;;6.72;1.42;;;;;;;;;;4932313;29;20035;-84
2023/12/12 09:17:52;;;;;;;1.53;1.10;;;;;;;;;;4917864;29;20544;-83
2023/12/12 09:20:17;;;;;;;2.73;1.37;;;;;;;;;;4932248;29;20334;-83
2023/12/12 09:22:42;;;;;;;3.67;1.40;;;;;;;;;;4917504;29;20342;-83
2023/12/12 09:25:07;;;;;;;1.80;1.07;;;;;;;;;;4917550;29;20056;-84
2023/12/12 09:27:32;;;;;;;1.40;1.10;;;;;;;;;;4916131;29;20028;-83
2023/12/12 09:29:58;;;;;;;3.43;1.60;;;;;;;;;;4916286;29;20345;-83
2023/12/12 09:32:23;;;;;;;1.97;1.33;;;;;;;;;;4917515;29;20306;-83
2023/12/12 09:34:48;;;;;;;1.85;1.35;;;;;;;;;;4917581;29;20266;-83
2023/12/12 09:37:13;;;;;;;3.25;1.40;;;;;;;;;;4917603;29;20039;-84
2023/12/12 09:39:39;;;;;;;4.05;1.42;;;;;;;;;;4931901;29;20480;-83
2023/12/12 09:42:08;;;;;;;3.67;1.70;;;;;;;;;;4917394;29;20103;-83
2023/12/12 09:44:34;;;;;;;3.15;1.50;;;;;;;;;;4917251;29;20243;-83
2023/12/12 09:47:00;;;;;;;2.88;1.67;;;;;;;;;;4931897;29;20433;-83
2023/12/12 09:49:26;;;;;;;2.50;1.73;;;;;;;;;;4917277;29;20027;-83
2023/12/12 09:51:54;;;;;;;3.83;2.10;;;;;;;;;;4917139;29;20028;-83
2023/12/12 09:54:20;;;;;;;3.92;1.48;;;;;;;;;;4917304;29;20052;-84
2023/12/12 09:56:46;;;;;;;3.03;1.83;;;;;;;;;;4917187;29;20508;-83
2023/12/12 09:59:11;;;;;;;4.55;2.25;;;;;;;;;;4915801;29;20028;-83
2023/12/12 10:01:38;;;;;;;2.97;1.70;;;;;;;;;;4917078;29;20431;-84
2023/12/12 10:04:07;;;;;;;3.45;1.75;;;;;;;;;;4917048;29;20020;-83
2023/12/12 10:06:38;;;;;;;3.50;1.98;;;;;;;;;;4917002;29;20473;-84
2023/12/12 10:09:03;;;;;;;4.47;1.63;;;;;;;;;;4931633;29;20092;-83
2023/12/12 10:11:28;;;;;;;3.43;1.60;;;;;;;;;;4931631;29;20111;-84
2023/12/12 10:13:56;;;;;;;3.50;1.30;;;;;;;;;;4931581;29;20259;-83
2023/12/12 10:16:22;;;;;;;2.53;1.60;;;;;;;;;;4931524;29;20051;-83
2023/12/12 10:18:48;;;;;;;16.52;7.43;;;;;;;;;;4931507;29;20477;-83
2023/12/12 10:21:13;;;;;;;16.77;6.88;;;;;;;;;;4931577;29;20016;-83
2023/12/12 10:23:51;;;;;;;4.53;2.80;;;;;;;;;;4931423;29;20115;-83
2023/12/12 10:26:32;;;;;;;4.47;2.28;;;;;;;;;;4916894;29;20521;-83
2023/12/12 10:28:58;;;;;;;2.20;1.63;;;;;;;;;;4931199;29;20576;-83
2023/12/12 10:31:23;;;;;;;2.38;1.40;;;;;;;;;;4931437;29;20024;-83
2023/12/12 10:33:57;;;;;;;1.98;1.10;;;;;;;;;;4931416;29;20028;-83
2023/12/12 10:36:24;;;;;;;0.47;0.47;;;;;;;;;;4915583;29;20572;-83
2023/12/12 10:38:49;;;;;;;1.67;0.70;;;;;;;;;;4915477;29;20036;-83
2023/12/12 10:41:16;;;;;;;0.70;0.70;;;;;;;;;;4916808;29;20493;-83
2023/12/12 10:43:42;;;;;;;1.17;0.80;;;;;;;;;;4916810;29;20251;-83
2023/12/12 10:46:08;;;;;;;1.38;0.93;;;;;;;;;;4916797;29;20016;-83
2023/12/12 10:48:35;;;;;;;0.70;0.60;;;;;;;;;;4931290;29;20028;-83
2023/12/12 10:51:01;;;;;;;0.77;0.68;;;;;;;;;;4916680;29;20066;-83
2023/12/12 10:53:28;;;;;;;2.45;1.00;;;;;;;;;;4916698;29;20027;-83
2023/12/12 10:55:55;;;;;;;0.88;0.75;;;;;;;;;;4931240;29;20028;-83
2023/12/12 10:58:21;;;;;;;4.45;0.80;;;;;;;;;;4916558;29;20036;-84
2023/12/12 11:00:48;;;;;;;1.33;0.68;;;;;;;;;;4916627;29;20469;-83
2023/12/12 11:03:13;;;;;;;0.70;0.68;;;;;;;;;;4915325;29;20021;-83
2023/12/12 11:05:38;;;;;;;1.23;0.70;;;;;;;;;;4933488;29;20026;-83
2023/12/12 11:08:05;;;;;;;1.42;0.63;;;;;;;;;;4934663;29;20472;-83
2023/12/12 11:10:30;;;;;;;1.55;0.57;;;;;;;;;;4918743;29;20028;-83
2023/12/12 11:12:58;;;;;;;0.80;0.60;;;;;;;;;;4920022;29;20024;-83
2023/12/12 11:15:24;;;;;;;0.43;0.40;;;;;;;;;;4934598;29;20063;-83
2023/12/12 11:17:50;;;;;;;0.55;0.38;;;;;;;;;;4918478;29;20038;-83
2023/12/12 11:20:17;;;;;;;2.53;1.20;;;;;;;;;;4934420;29;20023;-83
2023/12/12 11:22:48;;;;;;;0.70;0.50;;;;;;;;;;4918398;29;20560;-84
2023/12/12 11:25:16;;;;;;;0.93;0.70;;;;;;;;;;4934310;29;20028;-84
2023/12/12 11:27:44;;;;;;;0.85;0.70;;;;;;;;;;4918243;29;20405;-84
2023/12/12 11:30:09;;;;;;;1.48;0.60;;;;;;;;;;4919927;29;20524;-84
2023/12/12 11:32:35;;;;;;;1.05;0.57;;;;;;;;;;4919560;29;20103;-84
2023/12/12 11:35:06;;;;;;;1.23;0.70;;;;;;;;;;4934156;29;20032;-83
2023/12/12 11:37:41;;;;;;;0.95;0.73;;;;;;;;;;4919412;29;20071;-84
2023/12/12 11:40:06;;;;;;;0.98;0.50;;;;;;;;;;4934039;29;20021;-83
2023/12/12 11:42:32;;;;;;;0.47;0.40;;;;;;;;;;4933990;29;20023;-83
2023/12/12 11:44:58;;;;;;;0.40;0.40;;;;;;;;;;4919422;29;20028;-84
2023/12/12 11:47:29;;;;;;;2.28;0.60;;;;;;;;;;4918108;29;20160;-84
2023/12/12 11:50:16;;;;;;;1.67;0.63;;;;;;;;;;4919504;29;20437;-84
2023/12/12 11:52:42;;;;;;;1.90;0.38;;;;;;;;;;4912649;29;20024;-84
2023/12/12 11:55:10;;;;;;;1.00;0.60;;;;;;;;;;4919281;29;20107;-84
2023/12/12 11:57:35;;;;;;;0.68;0.60;;;;;;;;;;4919126;29;20020;-83
2023/12/12 12:00:04;;;;;;;0.60;0.60;;;;;;;;;;4933635;29;20020;-84
2023/12/12 12:02:30;;;;;;;0.63;0.63;;;;;;;;;;4919000;29;20088;-83
2023/12/12 12:04:55;;;;;;;0.43;0.43;;;;;;;;;;4933616;29;20422;-83
2023/12/12 12:07:20;;;;;;;1.13;0.80;;;;;;;;;;4918978;29;20064;-83
2023/12/12 12:09:47;;;;;;;1.87;0.77;;;;;;;;;;4918951;29;20098;-84
2023/12/12 12:12:13;;;;;;;0.77;0.63;;;;;;;;;;4933490;29;20258;-84
2023/12/12 12:14:39;;;;;;;1.42;0.47;;;;;;;;;;4918967;29;20079;-83
2023/12/12 12:17:04;;;;;;;0.75;0.60;;;;;;;;;;4916516;29;20429;-84
2023/12/12 12:19:30;;;;;;;1.40;0.70;;;;;;;;;;4917406;29;20024;-84
2023/12/12 12:22:00;;;;;;;1.00;0.60;;;;;;;;;;4918659;29;20330;-83
2023/12/12 12:24:25;;;;;;;1.00;0.70;;;;;;;;;;4918669;29;20493;-83
2023/12/12 12:26:51;;;;;;;1.58;0.60;;;;;;;;;;4933107;29;20089;-83
2023/12/12 12:29:16;;;;;;;0.88;0.50;;;;;;;;;;4918444;29;20052;-83
2023/12/12 12:31:41;;;;;;;1.42;0.68;;;;;;;;;;4918592;29;20103;-84
2023/12/12 12:34:19;;;;;;;0.73;0.60;;;;;;;;;;4933042;29;20066;-83
2023/12/12 12:36:53;;;;;;;1.30;0.80;;;;;;;;;;4932976;29;20115;-83
2023/12/12 12:39:19;;;;;;;1.08;0.60;;;;;;;;;;4932920;29;20094;-83
2023/12/12 12:41:47;;;;;;;1.08;0.63;;;;;;;;;;4932944;29;20024;-84
2023/12/12 12:44:13;;;;;;;1.10;1.00;;;;;;;;;;4917030;29;20023;-83
2023/12/12 12:46:39;;;;;;;0.60;0.60;;;;;;;;;;4932787;29;20545;-84
2023/12/12 12:49:04;;;;;;;0.88;0.55;;;;;;;;;;4932777;29;20024;-84
2023/12/12 12:51:30;;;;;;;0.60;0.60;;;;;;;;;;4918156;29;20500;-84
2023/12/12 12:53:55;;;;;;;1.42;0.50;;;;;;;;;;4932654;29;20392;-83
2023/12/12 12:56:20;;;;;;;2.17;0.55;;;;;;;;;;4916827;29;20396;-84
2023/12/12 12:58:45;;;;;;;0.57;0.50;;;;;;;;;;4932578;29;20027;-83
2023/12/12 13:01:11;;;;;;;0.85;0.65;;;;;;;;;;4932542;29;20388;-84
2023/12/12 13:03:36;;;;;;;1.00;0.68;;;;;;;;;;4916752;29;20020;-83
2023/12/12 13:06:01;;;;;;;0.77;0.68;;;;;;;;;;4932512;29;20535;-84
2023/12/12 13:08:26;;;;;;;0.50;0.50;;;;;;;;;;4917889;29;20035;-84
2023/12/12 13:10:51;;;;;;;1.50;0.63;;;;;;;;;;4932414;29;20498;-84
2023/12/12 13:13:19;;;;;;;0.90;0.73;;;;;;;;;;4917742;29;20282;-84
2023/12/12 13:15:44;;;;;;;1.27;0.47;;;;;;;;;;4932296;29;20289;-84
2023/12/12 13:18:10;;;;;;;0.53;0.53;;;;;;;;;;4932250;29;20048;-84
2023/12/12 13:20:35;;;;;;;0.97;0.60;;;;;;;;;;4917767;29;20270;-84
2023/12/12 13:23:00;;;;;;;0.50;0.50;;;;;;;;;;4917703;29;20247;-83
2023/12/12 13:25:25;;;;;;;0.90;0.60;;;;;;;;;;4932182;29;20330;-83
2023/12/12 13:27:50;;;;;;;1.93;0.47;;;;;;;;;;4917101;29;20342;-84
2023/12/12 13:30:16;;;;;;;0.47;0.40;;;;;;;;;;4917565;29;20334;-84
2023/12/12 13:32:42;;;;;;;0.77;0.50;;;;;;;;;;4932073;29;20325;-84
2023/12/12 13:35:09;;;;;;;0.88;0.60;;;;;;;;;;4917345;29;20258;-83
2023/12/12 13:37:35;;;;;;;0.63;0.60;;;;;;;;;;4916063;29;20035;-84
2023/12/12 13:40:00;;;;;;;0.75;0.47;;;;;;;;;;4931946;29;20020;-83
2023/12/12 13:42:26;;;;;;;1.33;0.68;;;;;;;;;;4917405;29;20521;-84
2023/12/12 13:44:51;;;;;;;1.75;0.50;;;;;;;;;;4916098;29;20125;-84
2023/12/12 13:47:16;;;;;;;1.83;0.90;;;;;;;;;;4915962;29;20040;-84
2023/12/12 13:49:41;;;;;;;0.53;0.40;;;;;;;;;;4931878;29;20034;-84
2023/12/12 13:52:07;;;;;;;0.40;0.40;;;;;;;;;;4917343;29;20338;-83
2023/12/12 13:54:32;;;;;;;0.40;0.40;;;;;;;;;;4917192;29;20443;-84
2023/12/12 13:56:58;;;;;;;0.77;0.40;;;;;;;;;;4917134;29;20028;-83
2023/12/12 13:59:23;;;;;;;0.52;0.30;;;;;;;;;;4931570;29;20092;-84
2023/12/12 14:01:48;;;;;;;0.37;0.30;;;;;;;;;;4917165;29;20473;-83
2023/12/12 14:04:13;;;;;;;0.40;0.40;;;;;;;;;;4915869;29;20589;-84
2023/12/12 14:06:39;;;;;;;1.63;0.47;;;;;;;;;;4915889;29;20255;-84
2023/12/12 14:09:04;;;;;;;0.70;0.50;;;;;;;;;;4917086;29;20497;-84
2023/12/12 14:11:29;;;;;;;0.25;0.25;;;;;;;;;;4916991;29;20761;-84
2023/12/12 14:13:55;;;;;;;0.40;0.40;;;;;;;;;;4931625;29;20036;-84
2023/12/12 14:16:20;;;;;;;0.60;0.50;;;;;;;;;;4917044;29;20269;-84
2023/12/12 14:18:45;;;;;;;1.60;0.80;;;;;;;;;;4916958;29;20362;-83
2023/12/12 14:21:10;;;;;;;1.97;0.63;;;;;;;;;;4917002;29;20732;-84
2023/12/12 14:23:36;;;;;;;1.27;0.75;;;;;;;;;;4916871;29;20608;-84
2023/12/12 14:26:01;;;;;;;5.28;2.08;;;;;;;;;;4915656;29;20028;-83
2023/12/12 14:28:26;;;;;;;4.27;2.40;;;;;;;;;;4916836;29;20062;-83
2023/12/12 14:30:51;;;;;;;7.53;3.55;;;;;;;;;;4915658;29;20251;-84